Time;durP1;ratioP1;P1;durP2;ratioP2;P2;SDS_P1;SDS_P2;PMS_P1;PMS_P2;Temp;Humidity;BMP_temperature;BMP_pressure;BME280_temperature;BME280_humidity;BME280_pressure;Samples;Min_cycle;Max_cycle;Signal;HPM_P1;HPM_P2
2023/09/12 00:01:47;;;;;;;3.35;3.05;;;21.40;99.90;;;;;;4971740;28;20202;-67
2023/09/12 00:04:15;;;;;;;3.80;3.13;;;21.40;99.90;;;;;;4972975;28;20614;-67
2023/09/12 00:06:43;;;;;;;6.00;3.22;;;21.40;99.90;;;;;;4973633;28;20207;-66
2023/09/12 00:09:11;;;;;;;7.35;2.97;;;21.20;99.90;;;;;;4974106;28;20222;-66
2023/09/12 00:11:40;;;;;;;5.63;3.33;;;21.20;99.90;;;;;;4987506;28;20226;-67
2023/09/12 00:14:10;;;;;;;4.05;2.95;;;21.10;99.90;;;;;;4964355;28;20237;-66
2023/09/12 00:16:38;;;;;;;3.78;3.35;;;21.00;99.90;;;;;;4973455;28;20580;-67
2023/09/12 00:19:06;;;;;;;2.67;2.40;;;21.00;99.90;;;;;;4980520;28;20250;-68
2023/09/12 00:21:34;;;;;;;6.30;3.13;;;21.00;99.90;;;;;;4971677;28;20207;-67
2023/09/12 00:24:02;;;;;;;3.17;2.45;;;21.20;99.90;;;;;;4972770;28;20578;-67
2023/09/12 00:26:31;;;;;;;3.35;2.70;;;21.20;99.90;;;;;;4972767;28;20282;-67
2023/09/12 00:28:58;;;;;;;3.17;2.58;;;21.20;99.90;;;;;;4973070;28;20223;-67
2023/09/12 00:31:28;;;;;;;3.47;3.17;;;21.20;99.90;;;;;;4971276;28;20207;-67
2023/09/12 00:33:56;;;;;;;3.95;3.50;;;21.20;99.90;;;;;;4972612;28;20779;-67
2023/09/12 00:36:24;;;;;;;6.07;2.92;;;21.20;99.90;;;;;;4972823;28;20622;-67
2023/09/12 00:38:52;;;;;;;9.15;3.70;;;21.20;99.90;;;;;;4972963;28;20759;-68
2023/09/12 00:41:20;;;;;;;3.25;2.60;;;21.10;99.90;;;;;;4969938;28;20270;-69
2023/09/12 00:43:47;;;;;;;2.72;2.53;;;21.00;99.90;;;;;;4980664;28;20287;-67
2023/09/12 00:46:20;;;;;;;5.28;2.55;;;20.90;99.90;;;;;;4972566;28;20593;-66
2023/09/12 00:48:51;;;;;;;3.55;2.92;;;20.90;99.90;;;;;;4970244;28;20230;-67
2023/09/12 00:51:21;;;;;;;10.52;3.38;;;20.80;99.90;;;;;;4972056;28;20800;-67
2023/09/12 00:53:49;;;;;;;5.78;3.30;;;20.70;99.90;;;;;;4973340;28;20297;-66
2023/09/12 00:56:17;;;;;;;6.25;3.65;;;20.70;99.90;;;;;;4969311;28;20458;-67
2023/09/12 00:58:46;;;;;;;3.67;2.40;;;20.60;99.90;;;;;;4969496;28;20269;-67
2023/09/12 01:01:14;;;;;;;4.82;2.58;;;20.70;99.90;;;;;;4972321;28;20214;-67
2023/09/12 01:03:42;;;;;;;4.47;3.20;;;20.70;99.90;;;;;;4972234;28;20207;-67
2023/09/12 01:06:13;;;;;;;5.80;3.35;;;20.70;99.90;;;;;;4970300;28;20212;-68
2023/09/12 01:08:41;;;;;;;3.65;3.35;;;20.60;99.90;;;;;;4965233;28;20229;-68
2023/09/12 01:11:10;;;;;;;4.00;2.78;;;20.60;99.90;;;;;;4988066;28;20273;-66
2023/09/12 01:13:37;;;;;;;6.38;3.65;;;20.60;99.90;;;;;;4967701;28;20202;-65
2023/09/12 01:16:05;;;;;;;3.60;2.85;;;20.50;99.90;;;;;;4974546;28;20293;-66
2023/09/12 01:18:36;;;;;;;5.80;3.40;;;20.40;99.90;;;;;;4972249;28;20201;-67
2023/09/12 01:21:30;;;;;;;6.75;3.30;;;20.30;99.90;;;;;;4972246;28;20235;-65
2023/09/12 01:24:18;;;;;;;4.25;3.05;;;20.20;99.90;;;;;;4965170;28;20242;-66
2023/09/12 01:26:56;;;;;;;6.22;3.47;;;20.10;99.90;;;;;;4972504;28;20211;-66
2023/09/12 01:29:27;;;;;;;3.08;2.78;;;20.10;99.90;;;;;;4971895;28;20222;-66
2023/09/12 01:31:56;;;;;;;3.55;2.50;;;20.00;99.90;;;;;;4968619;28;20220;-66
2023/09/12 01:34:24;;;;;;;5.32;3.10;;;20.20;99.90;;;;;;4968847;28;20254;-66
2023/09/12 01:36:52;;;;;;;5.15;3.40;;;20.20;99.90;;;;;;4978327;28;20222;-66
2023/09/12 01:39:20;;;;;;;8.18;3.60;;;20.40;99.90;;;;;;4971617;28;20203;-66
2023/09/12 01:41:49;;;;;;;5.43;3.25;;;20.40;99.90;;;;;;4986786;28;20238;-66
2023/09/12 01:44:18;;;;;;;4.85;3.40;;;20.40;99.90;;;;;;4971227;28;20293;-66
2023/09/12 01:46:50;;;;;;;3.88;3.05;;;20.30;99.90;;;;;;4971244;28;20214;-66
2023/09/12 01:49:19;;;;;;;6.85;3.83;;;20.20;99.90;;;;;;4971775;28;20230;-66
2023/09/12 01:51:47;;;;;;;4.85;3.35;;;20.20;99.90;;;;;;4971856;28;20207;-67
2023/09/12 01:54:15;;;;;;;6.60;3.22;;;20.20;99.90;;;;;;4971751;28;20238;-67
2023/09/12 01:56:44;;;;;;;4.47;3.45;;;20.30;99.90;;;;;;4961724;28;20238;-66
2023/09/12 01:59:12;;;;;;;8.27;3.92;;;20.20;99.90;;;;;;4971880;28;20261;-66
2023/09/12 02:01:41;;;;;;;5.32;3.30;;;20.20;99.90;;;;;;4971538;28;20202;-66
2023/09/12 02:04:10;;;;;;;3.05;2.85;;;20.20;99.90;;;;;;4971710;28;20229;-67
2023/09/12 02:06:38;;;;;;;4.28;3.40;;;20.20;99.90;;;;;;4970953;28;20210;-68
2023/09/12 02:09:06;;;;;;;6.45;3.92;;;20.20;99.90;;;;;;4970020;28;20306;-66
2023/09/12 02:11:34;;;;;;;4.47;3.40;;;20.20;99.90;;;;;;4986534;28;20221;-68
2023/09/12 02:14:02;;;;;;;3.92;3.53;;;20.20;99.90;;;;;;4968274;28;20230;-67
2023/09/12 02:16:31;;;;;;;5.18;3.00;;;20.20;99.90;;;;;;4971743;28;20215;-68
2023/09/12 02:18:59;;;;;;;7.25;3.30;;;20.30;99.90;;;;;;4971679;28;20317;-66
2023/09/12 02:21:29;;;;;;;6.75;3.03;;;20.70;99.90;;;;;;4971400;28;20211;-67
2023/09/12 02:23:57;;;;;;;4.18;3.80;;;21.10;99.90;;;;;;4969373;28;20567;-67
2023/09/12 02:26:25;;;;;;;4.90;3.00;;;21.30;99.90;;;;;;4969368;28;20211;-67
2023/09/12 02:28:53;;;;;;;5.90;2.80;;;21.30;99.90;;;;;;4971643;28;20214;-67
2023/09/12 02:31:20;;;;;;;5.55;3.10;;;21.30;99.90;;;;;;4968243;28;20211;-67
2023/09/12 02:33:48;;;;;;;7.07;3.10;;;21.10;99.90;;;;;;4971359;28;20211;-68
2023/09/12 02:36:16;;;;;;;4.93;3.35;;;20.80;99.90;;;;;;4972033;28;20210;-67
2023/09/12 02:38:46;;;;;;;3.90;3.08;;;20.70;99.90;;;;;;4963099;28;20202;-67
2023/09/12 02:41:14;;;;;;;4.85;3.22;;;20.50;99.90;;;;;;4974744;28;20258;-68
2023/09/12 02:43:42;;;;;;;6.32;4.20;;;20.20;99.90;;;;;;4971182;28;20202;-68
2023/09/12 02:46:09;;;;;;;4.90;3.50;;;20.10;99.90;;;;;;4975670;28;20206;-68
2023/09/12 02:48:37;;;;;;;4.65;3.42;;;20.00;99.90;;;;;;4974980;28;20218;-68
2023/09/12 02:51:05;;;;;;;4.93;3.60;;;19.90;99.90;;;;;;4975180;28;20206;-68
2023/09/12 02:53:33;;;;;;;3.70;3.35;;;19.70;99.90;;;;;;4974474;28;20210;-68
2023/09/12 02:56:03;;;;;;;5.43;3.90;;;19.70;99.90;;;;;;4975065;28;20207;-68
2023/09/12 02:58:31;;;;;;;2.97;2.67;;;19.60;99.90;;;;;;4973546;28;20206;-68
2023/09/12 03:00:59;;;;;;;5.55;3.85;;;19.50;99.90;;;;;;4969178;28;20261;-68
2023/09/12 03:03:27;;;;;;;4.00;3.33;;;19.50;99.90;;;;;;4974324;28;20261;-68
2023/09/12 03:06:02;;;;;;;8.85;3.75;;;19.50;99.90;;;;;;4970957;28;20609;-68
2023/09/12 03:08:30;;;;;;;2.60;2.40;;;19.50;99.90;;;;;;4975417;28;20223;-69
2023/09/12 03:10:58;;;;;;;4.35;3.38;;;19.40;99.90;;;;;;4993917;28;20858;-67
2023/09/12 03:13:29;;;;;;;3.70;3.25;;;19.40;99.90;;;;;;4977119;28;20534;-67
2023/09/12 03:15:57;;;;;;;6.18;3.50;;;19.50;99.90;;;;;;4972086;28;20233;-67
2023/09/12 03:18:25;;;;;;;9.93;3.17;;;19.60;99.90;;;;;;4974354;28;20209;-67
2023/09/12 03:20:53;;;;;;;5.38;3.00;;;19.70;99.90;;;;;;4973776;28;20631;-67
2023/09/12 03:23:21;;;;;;;3.75;3.45;;;19.70;99.90;;;;;;4970603;28;20688;-68
2023/09/12 03:25:49;;;;;;;4.43;3.58;;;19.70;99.90;;;;;;4966572;28;20233;-67
2023/09/12 03:28:17;;;;;;;10.95;3.67;;;19.60;99.90;;;;;;4974167;28;20221;-67
2023/09/12 03:30:46;;;;;;;10.07;4.28;;;19.60;99.90;;;;;;4974048;28;20206;-67
2023/09/12 03:33:14;;;;;;;3.38;2.80;;;19.60;99.90;;;;;;4974398;28;20217;-68
2023/09/12 03:35:44;;;;;;;6.10;3.20;;;19.50;99.90;;;;;;4966145;28;20234;-66
2023/09/12 03:38:12;;;;;;;4.03;3.65;;;19.50;99.90;;;;;;4971650;28;20206;-66
2023/09/12 03:40:40;;;;;;;4.07;3.67;;;19.60;99.90;;;;;;4988024;28;20625;-66
2023/09/12 03:43:08;;;;;;;4.10;3.17;;;19.70;99.90;;;;;;4971899;28;20626;-68
2023/09/12 03:45:38;;;;;;;4.70;3.22;;;19.70;99.90;;;;;;4975071;28;20349;-66
2023/09/12 03:48:07;;;;;;;4.07;2.97;;;19.70;99.90;;;;;;4991638;28;20221;-66
2023/09/12 03:50:35;;;;;;;6.13;3.42;;;19.70;99.90;;;;;;4992735;28;20232;-66
2023/09/12 03:53:04;;;;;;;3.75;3.40;;;19.60;99.90;;;;;;4993133;28;20286;-66
2023/09/12 03:55:32;;;;;;;8.82;3.72;;;19.60;99.90;;;;;;4992399;28;20601;-68
2023/09/12 03:58:00;;;;;;;5.70;4.63;;;19.60;99.90;;;;;;4992933;28;20591;-65
2023/09/12 04:00:28;;;;;;;5.55;3.78;;;19.60;99.90;;;;;;4992991;28;20220;-64
2023/09/12 04:02:56;;;;;;;9.63;4.13;;;19.60;99.90;;;;;;4993152;28;20210;-67
2023/09/12 04:05:26;;;;;;;6.55;3.15;;;19.50;99.90;;;;;;4993240;28;20230;-67
2023/09/12 04:07:54;;;;;;;9.07;3.97;;;19.70;99.90;;;;;;4985324;28;20221;-67
2023/09/12 04:10:22;;;;;;;3.85;3.53;;;20.00;99.90;;;;;;4992977;28;20229;-66
2023/09/12 04:12:50;;;;;;;4.25;3.83;;;20.00;99.90;;;;;;4993071;28;20202;-66
2023/09/12 04:15:18;;;;;;;5.03;3.05;;;20.00;99.90;;;;;;4982008;28;20240;-66
2023/09/12 04:17:46;;;;;;;4.90;3.70;;;20.10;99.90;;;;;;4980938;28;20218;-66
2023/09/12 04:20:14;;;;;;;3.45;3.15;;;20.20;99.90;;;;;;4980806;28;20210;-67
2023/09/12 04:22:44;;;;;;;3.20;3.00;;;20.10;99.90;;;;;;4980362;28;20210;-66
2023/09/12 04:25:12;;;;;;;3.40;2.97;;;20.10;99.90;;;;;;4979760;28;20214;-66
2023/09/12 04:27:40;;;;;;;4.32;3.92;;;20.10;99.90;;;;;;4981370;28;20334;-66
2023/09/12 04:30:09;;;;;;;5.97;3.63;;;20.10;99.90;;;;;;4981215;28;20759;-66
2023/09/12 04:32:37;;;;;;;6.93;4.05;;;20.20;99.90;;;;;;4981281;28;20224;-67
2023/09/12 04:35:06;;;;;;;7.15;3.92;;;20.20;99.90;;;;;;4979588;28;20297;-66
2023/09/12 04:37:34;;;;;;;4.40;3.28;;;20.20;99.90;;;;;;4981463;28;20595;-66
2023/09/12 04:40:05;;;;;;;3.35;3.15;;;20.20;99.90;;;;;;4980997;28;20213;-66
2023/09/12 04:42:33;;;;;;;5.57;3.08;;;20.30;99.90;;;;;;4981022;28;20225;-66
2023/09/12 04:45:01;;;;;;;4.55;3.60;;;20.60;99.90;;;;;;4978592;28;20213;-65
2023/09/12 04:47:29;;;;;;;3.85;3.05;;;20.70;99.90;;;;;;4981307;28;20794;-66
2023/09/12 04:49:57;;;;;;;4.70;3.40;;;20.70;99.90;;;;;;4981214;28;20776;-67
2023/09/12 04:52:25;;;;;;;10.20;4.05;;;20.70;99.90;;;;;;4980827;28;20221;-66
2023/09/12 04:54:53;;;;;;;5.72;3.55;;;20.60;99.90;;;;;;4978609;28;20224;-66
2023/09/12 04:57:22;;;;;;;3.85;2.78;;;20.60;99.90;;;;;;4980756;28;20234;-65
2023/09/12 04:59:52;;;;;;;9.07;3.00;;;20.60;99.90;;;;;;4980514;28;20206;-65
2023/09/12 05:02:20;;;;;;;5.72;3.67;;;20.70;99.90;;;;;;4980367;28;20217;-65
2023/09/12 05:04:48;;;;;;;3.95;3.15;;;20.60;99.90;;;;;;4978084;28;20734;-66
2023/09/12 05:07:16;;;;;;;4.85;3.67;;;20.60;99.90;;;;;;4980265;28;20775;-67
2023/09/12 05:09:44;;;;;;;3.88;3.03;;;20.40;99.90;;;;;;4979708;28;20237;-66
2023/09/12 05:12:12;;;;;;;3.95;3.30;;;20.30;99.90;;;;;;4979597;28;20202;-65
2023/09/12 05:14:41;;;;;;;5.75;4.75;;;20.20;99.90;;;;;;4978985;28;20202;-67
2023/09/12 05:17:09;;;;;;;3.40;3.10;;;20.10;99.90;;;;;;4980457;28;20237;-66
2023/09/12 05:19:37;;;;;;;4.00;3.13;;;20.20;99.90;;;;;;4980523;28;20214;-66
2023/09/12 05:22:05;;;;;;;4.15;2.88;;;20.20;99.90;;;;;;4980836;28;20661;-66
2023/09/12 05:24:33;;;;;;;3.47;3.15;;;20.40;99.90;;;;;;4978016;28;20704;-67
2023/09/12 05:27:01;;;;;;;3.45;2.60;;;20.80;99.90;;;;;;4980440;28;20400;-65
2023/09/12 05:29:29;;;;;;;4.72;4.30;;;20.80;99.90;;;;;;4980250;28;20300;-67
2023/09/12 05:31:58;;;;;;;3.75;3.03;;;20.90;99.90;;;;;;4980297;28;20639;-65
2023/09/12 05:34:26;;;;;;;3.80;3.50;;;21.10;99.90;;;;;;4978181;28;20232;-66
2023/09/12 05:36:54;;;;;;;3.22;2.92;;;21.10;99.90;;;;;;4980324;28;20233;-66
2023/09/12 05:39:22;;;;;;;5.85;3.53;;;21.20;99.90;;;;;;4980289;28;20288;-65
2023/09/12 05:41:50;;;;;;;4.43;3.10;;;21.00;99.90;;;;;;4979603;28;20214;-66
2023/09/12 05:44:18;;;;;;;3.45;3.15;;;20.90;99.90;;;;;;4977430;28;20565;-66
2023/09/12 05:46:46;;;;;;;5.72;3.33;;;20.80;99.90;;;;;;4979512;28;20640;-66
2023/09/12 05:49:16;;;;;;;5.30;3.33;;;20.70;99.90;;;;;;4985323;28;20253;-65
2023/09/12 05:51:44;;;;;;;3.95;3.05;;;20.60;99.90;;;;;;4989251;28;20221;-66
2023/09/12 05:54:13;;;;;;;4.07;3.58;;;20.80;99.90;;;;;;4991952;28;20206;-66
2023/09/12 05:56:41;;;;;;;8.00;3.17;;;20.80;99.90;;;;;;4990399;28;20283;-66
2023/09/12 05:59:09;;;;;;;5.95;3.45;;;20.70;99.90;;;;;;4990880;28;20212;-67
2023/09/12 06:01:37;;;;;;;4.65;3.50;;;20.60;99.90;;;;;;4990886;28;20210;-67
2023/09/12 06:04:05;;;;;;;3.22;3.00;;;20.70;99.90;;;;;;4983531;28;20293;-66
2023/09/12 06:06:35;;;;;;;5.45;3.80;;;20.60;99.90;;;;;;4990785;28;20225;-66
2023/09/12 06:09:04;;;;;;;6.55;3.08;;;20.70;99.90;;;;;;4993335;28;20279;-67
2023/09/12 06:11:32;;;;;;;4.72;3.67;;;20.70;99.90;;;;;;4999135;28;20575;-68
2023/09/12 06:14:00;;;;;;;4.03;3.30;;;20.70;99.90;;;;;;4993857;28;20251;-68
2023/09/12 06:16:29;;;;;;;2.72;2.50;;;20.70;99.90;;;;;;4992431;28;20234;-67
2023/09/12 06:18:57;;;;;;;4.82;3.00;;;20.60;99.90;;;;;;4989958;28;20201;-67
2023/09/12 06:21:25;;;;;;;5.45;3.40;;;20.60;99.90;;;;;;4994219;28;20206;-67
2023/09/12 06:26:46;;;;;;;4.10;3.47;;;20.60;99.90;;;;;;5118412;27;20740;-67
2023/09/12 06:29:15;;;;;;;3.88;3.47;;;20.60;99.90;;;;;;5107198;28;20201;-67
2023/09/12 06:31:43;;;;;;;3.65;2.90;;;20.60;99.90;;;;;;5108291;28;20209;-67
2023/09/12 06:34:11;;;;;;;3.60;2.78;;;20.60;99.90;;;;;;5108746;28;20533;-67
2023/09/12 06:36:41;;;;;;;4.43;3.85;;;20.60;99.90;;;;;;5108526;28;20221;-67
2023/09/12 06:39:09;;;;;;;4.53;2.92;;;20.70;99.90;;;;;;5100460;28;20664;-67
2023/09/12 06:41:37;;;;;;;3.40;3.10;;;20.80;99.90;;;;;;5119042;28;20205;-67
2023/09/12 06:44:07;;;;;;;6.20;2.63;;;20.90;99.90;;;;;;5107884;28;20212;-67
2023/09/12 06:46:35;;;;;;;5.97;3.30;;;20.90;99.90;;;;;;5108114;28;20257;-67
2023/09/12 06:49:03;;;;;;;4.75;3.55;;;20.90;99.90;;;;;;5108079;28;20729;-67
2023/09/12 06:51:31;;;;;;;4.90;3.63;;;21.00;99.90;;;;;;5108065;28;20229;-67
2023/09/12 06:54:04;;;;;;;4.97;3.72;;;21.10;99.90;;;;;;5107912;28;20648;-67
2023/09/12 06:56:37;;;;;;;7.22;4.05;;;21.10;99.90;;;;;;5107837;28;20222;-67
2023/09/12 06:59:06;;;;;;;7.70;3.05;;;21.20;99.90;;;;;;5107121;28;20636;-67
2023/09/12 07:01:35;;;;;;;12.60;3.80;;;21.30;99.90;;;;;;5107912;28;20202;-66
2023/09/12 07:04:03;;;;;;;5.07;3.30;;;21.30;99.90;;;;;;5107550;28;20209;-67
2023/09/12 07:06:32;;;;;;;4.40;4.00;;;21.40;99.90;;;;;;5107800;28;20225;-67
2023/09/12 07:09:02;;;;;;;4.57;3.15;;;21.40;99.90;;;;;;5110191;28;20617;-67
2023/09/12 07:11:30;;;;;;;3.72;3.42;;;21.40;99.90;;;;;;5127917;27;20221;-67
2023/09/12 07:13:58;;;;;;;4.70;3.55;;;21.50;99.90;;;;;;5109191;27;20210;-67
2023/09/12 07:16:27;;;;;;;4.00;3.70;;;21.50;99.90;;;;;;5107413;28;20225;-68
2023/09/12 07:18:55;;;;;;;8.63;4.03;;;21.70;99.90;;;;;;5107195;28;20205;-68
2023/09/12 07:21:23;;;;;;;6.47;3.83;;;21.80;99.90;;;;;;5107509;28;20237;-68
2023/09/12 07:23:51;;;;;;;5.78;3.58;;;21.80;99.90;;;;;;5107270;28;20289;-67
2023/09/12 07:26:19;;;;;;;5.22;3.30;;;21.90;99.90;;;;;;5107183;28;20229;-67
2023/09/12 07:28:47;;;;;;;3.83;3.53;;;21.90;99.90;;;;;;5107462;28;20218;-66
2023/09/12 07:31:15;;;;;;;6.43;3.50;;;22.10;99.90;;;;;;5107501;28;20289;-67
2023/09/12 07:33:45;;;;;;;8.88;4.07;;;22.10;99.90;;;;;;5106867;28;20259;-67
2023/09/12 07:36:14;;;;;;;5.50;3.80;;;22.20;99.90;;;;;;5104652;28;20246;-67
2023/09/12 07:38:42;;;;;;;5.35;3.55;;;22.30;99.90;;;;;;5093662;28;20206;-67
2023/09/12 07:41:10;;;;;;;5.10;3.45;;;22.40;99.90;;;;;;5105057;28;20294;-67
2023/09/12 07:43:38;;;;;;;5.15;3.40;;;22.50;99.90;;;;;;5098347;28;20636;-67
2023/09/12 07:46:06;;;;;;;4.57;4.18;;;22.60;99.90;;;;;;5093384;28;20226;-68
2023/09/12 07:48:34;;;;;;;4.47;3.92;;;22.70;99.90;;;;;;5093670;28;20892;-67
2023/09/12 07:51:12;;;;;;;5.88;3.72;;;22.70;99.90;;;;;;5093537;28;20207;-67
2023/09/12 07:53:41;;;;;;;3.35;2.55;;;22.80;99.90;;;;;;5092880;28;20206;-67
2023/09/12 07:56:10;;;;;;;8.52;3.60;;;23.00;99.90;;;;;;5093208;28;20313;-67
2023/09/12 07:58:38;;;;;;;5.80;4.43;;;23.10;99.90;;;;;;5093798;28;20364;-67
2023/09/12 08:01:08;;;;;;;6.57;3.83;;;23.10;99.90;;;;;;5093240;28;20206;-67
2023/09/12 08:03:36;;;;;;;3.80;3.13;;;23.30;99.90;;;;;;5092852;28;20725;-67
2023/09/12 08:06:06;;;;;;;6.85;3.53;;;23.50;99.90;;;;;;5092957;28;20261;-67
2023/09/12 08:08:34;;;;;;;3.83;3.47;;;23.60;99.90;;;;;;5093253;28;20586;-67
2023/09/12 08:11:02;;;;;;;8.48;4.40;;;23.80;99.90;;;;;;5111604;28;20209;-67
2023/09/12 08:13:31;;;;;;;9.52;3.25;;;23.90;99.90;;;;;;5098524;28;20213;-67
2023/09/12 08:15:59;;;;;;;7.53;3.28;;;24.00;99.90;;;;;;5090659;28;20893;-67
2023/09/12 08:18:30;;;;;;;3.47;3.10;;;24.10;99.90;;;;;;5093577;28;20209;-68
2023/09/12 08:20:58;;;;;;;6.25;2.70;;;24.20;99.90;;;;;;5092905;28;20202;-68
2023/09/12 08:23:28;;;;;;;6.40;3.33;;;24.40;99.90;;;;;;5092642;28;20199;-68
2023/09/12 08:25:56;;;;;;;5.20;3.00;;;24.60;99.90;;;;;;5092730;28;20230;-68
2023/09/12 08:28:23;;;;;;;3.78;3.17;;;24.70;99.90;;;;;;5092585;28;20575;-67
2023/09/12 08:30:52;;;;;;;4.90;3.50;;;24.90;99.90;;;;;;5092791;28;20202;-67
2023/09/12 08:33:20;;;;;;;3.90;3.40;;;25.10;99.90;;;;;;5084398;28;20210;-67
2023/09/12 08:35:51;;;;;;;3.60;3.30;;;25.20;99.90;;;;;;5092818;28;20223;-67
2023/09/12 08:38:19;;;;;;;2.50;2.30;;;25.30;99.90;;;;;;5092713;28;20698;-67
2023/09/12 08:40:52;;;;;;;4.90;3.13;;;25.60;99.90;;;;;;5108566;28;20220;-68
2023/09/12 08:43:21;;;;;;;3.65;2.90;;;25.70;99.90;;;;;;5100235;28;20202;-67
2023/09/12 08:45:49;;;;;;;2.58;2.38;;;26.00;99.90;;;;;;5092595;28;20844;-67
2023/09/12 08:48:19;;;;;;;7.57;2.95;;;26.10;99.90;;;;;;5090968;28;20289;-67
2023/09/12 08:50:53;;;;;;;3.38;2.67;;;26.20;99.90;;;;;;5092502;28;20550;-67
2023/09/12 08:53:22;;;;;;;3.22;2.90;;;26.30;99.90;;;;;;5083962;28;20255;-67
2023/09/12 08:55:53;;;;;;;6.20;2.78;;;26.50;99.90;;;;;;5092210;28;20219;-68
2023/09/12 08:58:22;;;;;;;2.80;2.60;;;26.80;99.90;;;;;;5084171;28;20206;-67
2023/09/12 09:00:50;;;;;;;5.40;3.10;;;26.90;99.90;;;;;;5092227;28;20302;-68
2023/09/12 09:03:21;;;;;;;2.75;2.40;;;27.20;99.90;;;;;;5091298;28;20202;-68
2023/09/12 09:06:02;;;;;;;5.88;2.70;;;27.40;99.90;;;;;;5091768;28;20222;-67
2023/09/12 09:08:32;;;;;;;8.75;2.50;;;27.50;99.90;;;;;;5092078;28;20207;-68
2023/09/12 09:11:03;;;;;;;5.82;2.40;;;27.60;99.90;;;;;;5109017;28;20248;-68
2023/09/12 09:13:31;;;;;;;3.85;2.47;;;27.80;99.90;;;;;;5098902;28;20213;-68
2023/09/12 09:16:12;;;;;;;4.10;3.00;;;27.90;99.90;;;;;;5091603;28;20222;-68
2023/09/12 09:18:54;;;;;;;2.42;2.22;;;27.90;99.90;;;;;;5091580;28;20632;-67
2023/09/12 09:21:25;;;;;;;4.30;3.20;;;28.10;99.90;;;;;;5083689;28;20260;-68
2023/09/12 09:23:54;;;;;;;3.28;2.70;;;28.40;99.90;;;;;;5091619;28;20252;-67
2023/09/12 09:26:24;;;;;;;2.97;2.58;;;28.70;99.90;;;;;;5083093;28;20699;-68
2023/09/12 09:29:06;;;;;;;4.10;2.60;;;28.80;99.90;;;;;;5091609;28;20199;-67
2023/09/12 09:31:34;;;;;;;12.50;4.03;;;29.20;99.90;;;;;;5084874;28;20206;-68
2023/09/12 09:34:03;;;;;;;3.00;2.53;;;29.40;99.90;;;;;;5090892;28;20222;-67
2023/09/12 09:36:33;;;;;;;3.08;2.40;;;29.70;99.90;;;;;;5091570;28;20217;-68
2023/09/12 09:39:04;;;;;;;4.35;2.60;;;29.90;99.90;;;;;;5091859;28;20558;-68
2023/09/12 09:41:33;;;;;;;3.30;3.00;;;29.90;99.90;;;;;;5111619;28;20311;-68
2023/09/12 09:44:04;;;;;;;4.80;3.50;;;29.90;99.90;;;;;;5093854;28;20199;-68
2023/09/12 09:46:32;;;;;;;4.13;3.35;;;30.00;99.90;;;;;;5091400;22;20236;-68
2023/09/12 09:49:00;;;;;;;4.50;3.53;;;29.90;99.90;;;;;;5050670;28;20211;-68
2023/09/12 09:51:30;;;;;;;3.83;2.97;;;30.20;99.90;;;;;;5051068;28;20200;-68
2023/09/12 09:53:58;;;;;;;4.05;2.58;;;30.20;99.90;;;;;;5050154;28;20586;-68
2023/09/12 09:56:26;;;;;;;4.22;2.40;;;30.40;99.90;;;;;;5049919;28;20230;-68
2023/09/12 09:58:56;;;;;;;4.70;2.90;;;30.60;99.90;;;;;;5050978;28;20549;-69
2023/09/12 10:01:28;;;;;;;6.53;2.90;;;30.80;99.90;;;;;;5050565;28;20207;-69
2023/09/12 10:03:59;;;;;;;7.15;3.05;;;30.90;99.90;;;;;;5050629;28;20207;-69
2023/09/12 10:06:28;;;;;;;5.75;2.65;;;30.90;99.90;;;;;;5022976;28;20628;-68
2023/09/12 10:08:58;;;;;;;3.10;2.50;;;31.00;99.90;;;;;;5040929;28;20281;-68
2023/09/12 10:11:29;;;;;;;2.90;2.70;;;30.70;99.90;;;;;;5030980;28;20201;-68
2023/09/12 10:14:02;;;;;;;3.30;2.80;;;30.70;99.90;;;;;;5030501;28;21023;-69
2023/09/12 10:16:32;;;;;;;4.00;2.90;;;31.10;99.90;;;;;;5029307;28;20216;-68
2023/09/12 10:19:10;;;;;;;5.40;3.07;;;31.40;99.90;;;;;;5030777;28;20562;-68
2023/09/12 10:21:46;;;;;;;4.40;3.40;;;31.30;99.90;;;;;;5024041;28;20634;-69
2023/09/12 10:24:15;;;;;;;4.57;3.13;;;31.60;99.00;;;;;;5030491;28;20636;-69
2023/09/12 10:26:45;;;;;;;4.07;2.73;;;31.50;99.60;;;;;;5030679;28;20224;-69
2023/09/12 10:29:16;;;;;;;3.93;2.93;;;31.60;98.70;;;;;;5030569;28;20651;-69
2023/09/12 10:31:44;;;;;;;3.67;3.00;;;31.90;99.30;;;;;;5030374;28;20646;-69
2023/09/12 10:34:14;;;;;;;5.00;2.90;;;32.00;98.90;;;;;;5030427;28;20688;-69
2023/09/12 10:36:47;;;;;;;3.50;3.20;;;32.10;98.80;;;;;;5031036;28;20655;-69
2023/09/12 10:39:16;;;;;;;6.80;3.30;;;32.10;97.90;;;;;;5030334;28;20614;-69
2023/09/12 10:41:44;;;;;;;3.50;3.00;;;32.20;98.40;;;;;;5030640;28;20631;-68
2023/09/12 10:44:16;;;;;;;2.90;2.67;;;32.20;97.80;;;;;;5030180;28;20657;-69
2023/09/12 10:46:46;;;;;;;4.72;3.25;;;32.10;97.50;;;;;;5030318;28;20663;-68
2023/09/12 10:49:16;;;;;;;5.50;3.20;;;32.20;97.60;;;;;;5038558;28;20205;-69
2023/09/12 10:51:45;;;;;;;3.97;3.57;;;32.10;98.20;;;;;;5030286;28;20681;-69
2023/09/12 10:54:15;;;;;;;4.77;2.77;;;32.00;98.60;;;;;;5030181;28;20717;-69
2023/09/12 10:56:44;;;;;;;4.53;3.40;;;32.20;98.40;;;;;;5030435;28;20698;-69
2023/09/12 10:59:17;;;;;;;4.23;2.97;;;32.20;98.30;;;;;;5030055;28;20626;-69
2023/09/12 11:01:46;;;;;;;3.50;2.90;;;32.60;98.10;;;;;;5030519;28;20627;-69
2023/09/12 11:04:34;;;;;;;2.80;2.50;;;32.90;97.30;;;;;;5030171;28;20623;-69
2023/09/12 11:07:23;;;;;;;3.10;2.67;;;33.20;96.50;;;;;;5029514;28;20701;-69
2023/09/12 11:10:18;;;;;;;3.70;3.40;;;33.10;96.20;;;;;;5024601;28;20631;-69
2023/09/12 11:12:48;;;;;;;4.13;3.13;;;33.10;96.50;;;;;;5026331;28;20626;-69
2023/09/12 11:15:18;;;;;;;3.23;2.90;;;33.00;96.60;;;;;;5033893;28;20623;-69
2023/09/12 11:17:47;;;;;;;4.70;3.27;;;33.00;97.20;;;;;;5033969;28;20650;-68
2023/09/12 11:20:17;;;;;;;6.47;3.90;;;32.70;96.10;;;;;;5043084;28;21202;-69
2023/09/12 11:22:46;;;;;;;3.93;2.73;;;32.20;96.60;;;;;;5053819;28;20626;-69
2023/09/12 11:25:22;;;;;;;5.60;3.60;;;31.80;96.40;;;;;;5053814;28;20974;-69
2023/09/12 11:28:04;;;;;;;4.63;3.97;;;31.70;96.90;;;;;;5034120;28;20689;-69
2023/09/12 11:30:34;;;;;;;3.97;3.67;;;31.60;97.80;;;;;;5053760;28;21026;-69
2023/09/12 11:33:06;;;;;;;3.97;3.47;;;31.40;97.00;;;;;;5053700;28;20660;-70
2023/09/12 11:35:38;;;;;;;5.07;3.23;;;31.40;97.40;;;;;;5037600;28;20633;-69
2023/09/12 11:38:11;;;;;;;4.07;3.37;;;31.40;97.90;;;;;;5043362;28;20658;-68
2023/09/12 11:40:46;;;;;;;3.83;3.53;;;31.40;98.20;;;;;;5025874;28;20637;-68
2023/09/12 11:43:25;;;;;;;3.80;3.50;;;31.60;98.00;;;;;;5042135;28;21050;-68
2023/09/12 11:45:55;;;;;;;4.30;3.17;;;31.90;98.20;;;;;;5053374;28;20649;-68
2023/09/12 11:48:23;;;;;;;3.60;3.30;;;32.10;96.90;;;;;;5053380;28;20657;-68
2023/09/12 11:50:53;;;;;;;3.90;3.60;;;32.50;96.50;;;;;;5053381;28;20625;-68
2023/09/12 11:53:25;;;;;;;3.77;3.33;;;32.70;96.20;;;;;;5052205;28;20662;-68
2023/09/12 11:55:56;;;;;;;5.93;3.67;;;33.00;95.90;;;;;;5045299;28;20789;-68
2023/09/12 11:58:25;;;;;;;4.37;3.43;;;33.50;95.10;;;;;;5051527;28;20626;-68
2023/09/12 12:00:56;;;;;;;3.97;3.60;;;34.00;94.10;;;;;;5053156;28;21183;-68
2023/09/12 12:03:25;;;;;;;3.57;3.30;;;34.60;93.90;;;;;;5052752;28;20630;-68
2023/09/12 12:05:55;;;;;;;6.53;3.80;;;34.80;93.20;;;;;;5053188;28;21040;-68
2023/09/12 12:08:23;;;;;;;3.53;2.67;;;35.00;94.10;;;;;;5049904;28;21067;-68
2023/09/12 12:10:55;;;;;;;3.90;3.57;;;35.00;93.10;;;;;;5033140;28;20983;-68
2023/09/12 12:13:23;;;;;;;4.60;4.20;;;35.20;93.40;;;;;;5042443;28;20636;-68
2023/09/12 12:15:51;;;;;;;10.13;3.80;;;35.30;92.80;;;;;;5052939;28;20691;-68
2023/09/12 12:18:21;;;;;;;3.23;3.03;;;35.10;91.70;;;;;;5053140;28;20988;-68
2023/09/12 12:20:50;;;;;;;4.77;3.70;;;35.30;91.60;;;;;;5052694;28;20614;-68
2023/09/12 12:23:18;;;;;;;3.70;3.40;;;35.30;91.50;;;;;;5052368;28;20625;-68
2023/09/12 12:25:46;;;;;;;4.37;3.97;;;34.90;92.60;;;;;;5048054;28;20630;-68
2023/09/12 12:28:14;;;;;;;3.90;3.60;;;34.40;92.00;;;;;;5049112;28;20654;-68
2023/09/12 12:30:42;;;;;;;4.67;3.47;;;34.10;92.70;;;;;;5052264;28;20637;-68
2023/09/12 12:33:11;;;;;;;6.97;3.67;;;34.60;92.40;;;;;;5052504;28;20626;-68
2023/09/12 12:36:03;;;;;;;5.37;3.13;;;34.70;92.00;;;;;;5052657;28;20705;-68
2023/09/12 12:38:34;;;;;;;6.57;3.73;;;35.20;92.20;;;;;;5049857;28;20602;-68
2023/09/12 12:41:03;;;;;;;4.40;3.73;;;35.20;91.90;;;;;;5032098;28;20718;-68
2023/09/12 12:43:32;;;;;;;4.07;3.77;;;35.00;92.40;;;;;;5050974;28;20622;-68
2023/09/12 12:46:00;;;;;;;6.10;3.70;;;34.90;91.80;;;;;;5052187;28;21250;-68
2023/09/12 12:48:32;;;;;;;4.30;3.83;;;34.80;91.40;;;;;;5052228;28;20654;-68
2023/09/12 12:51:00;;;;;;;3.67;3.27;;;34.50;91.60;;;;;;5051962;28;21164;-67
2023/09/12 12:53:43;;;;;;;5.77;3.47;;;35.00;91.50;;;;;;5051789;28;20649;-69
2023/09/12 12:56:18;;;;;;;4.00;3.73;;;35.20;91.30;;;;;;5051068;28;20650;-68
2023/09/12 12:58:48;;;;;;;3.93;3.50;;;34.80;92.20;;;;;;5037402;28;21004;-68
2023/09/12 13:01:16;;;;;;;6.63;3.90;;;34.70;91.80;;;;;;5052035;28;21191;-68